createdAt,value
2023-09-24T00:01:14.774Z,3.30
2023-09-24T00:04:19.728Z,3.50
2023-09-24T00:05:53.220Z,3.38
2023-09-24T00:07:26.968Z,3.30
2023-09-24T00:08:59.967Z,3.58
2023-09-24T00:10:31.970Z,3.35
2023-09-24T00:12:05.465Z,3.63
2023-09-24T00:13:38.401Z,3.90
2023-09-24T00:15:14.043Z,3.67
2023-09-24T00:16:47.057Z,3.35
2023-09-24T00:18:20.949Z,3.58
2023-09-24T00:19:54.300Z,3.80
2023-09-24T00:21:27.283Z,4.13
2023-09-24T00:23:00.032Z,3.67
2023-09-24T00:24:32.981Z,3.42
2023-09-24T00:26:05.066Z,3.47
2023-09-24T00:27:37.980Z,4.00
2023-09-24T00:29:11.278Z,3.33
2023-09-24T00:32:17.436Z,3.92
2023-09-24T00:33:50.753Z,3.58
2023-09-24T00:35:23.865Z,3.88
2023-09-24T00:36:58.851Z,3.47
2023-09-24T00:38:31.779Z,3.53
2023-09-24T00:40:04.245Z,3.13
2023-09-24T00:41:37.555Z,2.90
2023-09-24T00:43:26.309Z,3.60
2023-09-24T00:44:58.335Z,3.08
2023-09-24T00:46:33.705Z,3.45
2023-09-24T00:48:06.445Z,2.90
2023-09-24T00:49:39.789Z,3.08
2023-09-24T00:51:18.060Z,3.10
2023-09-24T00:52:52.155Z,3.40
2023-09-24T00:54:24.696Z,3.22
2023-09-24T00:55:58.536Z,3.30
2023-09-24T00:57:33.861Z,3.55
2023-09-24T00:59:07.456Z,3.25
2023-09-24T01:00:40.331Z,3.30
2023-09-24T01:02:15.136Z,3.40
2023-09-24T01:03:49.628Z,3.58
2023-09-24T01:05:23.503Z,3.50
2023-09-24T01:06:57.653Z,3.55
2023-09-24T01:08:34.396Z,3.50
2023-09-24T01:10:12.144Z,3.65
2023-09-24T01:11:45.270Z,3.90
2023-09-24T01:13:20.293Z,3.30
2023-09-24T01:14:54.741Z,3.20
2023-09-24T01:16:27.056Z,3.15
2023-09-24T01:18:05.767Z,3.20
2023-09-24T01:19:37.908Z,3.60
2023-09-24T01:21:14.416Z,3.60
2023-09-24T01:22:47.903Z,3.25
2023-09-24T01:25:56.740Z,3.20
2023-09-24T01:27:30.057Z,3.22
2023-09-24T01:30:36.286Z,3.00
2023-09-24T01:32:09.738Z,2.97
2023-09-24T01:33:42.471Z,3.42
2023-09-24T01:35:16.663Z,3.10
2023-09-24T01:36:48.730Z,3.10
2023-09-24T01:38:23.137Z,3.45
2023-09-24T01:39:56.219Z,3.50
2023-09-24T01:41:31.508Z,3.38
2023-09-24T01:43:06.012Z,3.10
2023-09-24T01:44:38.961Z,3.58
2023-09-24T01:46:14.347Z,3.45
2023-09-24T01:47:51.215Z,3.08
2023-09-24T01:49:24.923Z,3.00
2023-09-24T01:52:29.611Z,2.85
2023-09-24T01:54:03.953Z,2.95
2023-09-24T01:55:37.605Z,2.85
2023-09-24T01:57:10.550Z,3.00
2023-09-24T01:58:43.255Z,3.20
2023-09-24T02:00:19.271Z,3.20
2023-09-24T02:01:53.530Z,2.90
2023-09-24T02:03:25.652Z,2.95
2023-09-24T02:04:58.663Z,3.05
2023-09-24T02:06:31.886Z,3.22
2023-09-24T02:08:09.405Z,2.85
2023-09-24T02:09:42.826Z,2.80
2023-09-24T02:11:15.804Z,3.20
2023-09-24T02:14:21.922Z,2.95
2023-09-24T02:15:55.056Z,2.80
2023-09-24T02:17:27.316Z,3.15
2023-09-24T02:19:01.820Z,3.08
2023-09-24T02:20:34.223Z,2.97
2023-09-24T02:22:08.903Z,3.13
2023-09-24T02:23:41.158Z,3.08
2023-09-24T02:25:15.574Z,3.00
2023-09-24T02:26:47.593Z,3.10
2023-09-24T02:28:20.776Z,3.00
2023-09-24T02:29:54.716Z,3.08
2023-09-24T02:31:28.059Z,3.30
2023-09-24T02:34:35.687Z,4.72
2023-09-24T02:36:09.549Z,7.07
2023-09-24T02:37:45.314Z,8.32
2023-09-24T02:39:18.329Z,6.28
2023-09-24T02:40:51.956Z,6.45
2023-09-24T02:42:26.215Z,6.53
2023-09-24T02:44:02.870Z,5.20
2023-09-24T02:45:36.060Z,4.57
2023-09-24T02:47:08.129Z,5.60
2023-09-24T02:48:43.831Z,6.18
2023-09-24T02:50:16.201Z,5.55
2023-09-24T02:51:50.911Z,4.18
2023-09-24T02:53:24.025Z,3.60
2023-09-24T02:54:56.046Z,3.40
2023-09-24T02:56:31.287Z,3.30
2023-09-24T02:58:05.090Z,2.75
2023-09-24T02:59:38.207Z,2.75
2023-09-24T03:01:16.522Z,2.80
2023-09-24T03:02:49.629Z,3.28
2023-09-24T03:04:25.139Z,2.70
2023-09-24T03:05:58.316Z,2.80
2023-09-24T03:07:30.401Z,2.92
2023-09-24T03:09:03.419Z,3.47
2023-09-24T03:10:36.792Z,3.10
2023-09-24T03:13:44.041Z,3.13
2023-09-24T03:15:16.833Z,2.92
2023-09-24T03:16:49.772Z,3.42
2023-09-24T03:18:22.825Z,3.30
2023-09-24T03:19:55.160Z,2.75
2023-09-24T03:21:28.177Z,2.60
2023-09-24T03:23:09.647Z,2.95
2023-09-24T03:24:43.667Z,2.97
2023-09-24T03:26:17.258Z,2.75
2023-09-24T03:27:53.620Z,2.90
2023-09-24T03:29:25.632Z,2.88
2023-09-24T03:30:58.544Z,2.85
2023-09-24T03:32:32.583Z,3.10
2023-09-24T03:34:05.563Z,3.00
2023-09-24T03:35:37.609Z,2.85
2023-09-24T03:37:10.739Z,2.60
2023-09-24T03:38:44.274Z,3.00
2023-09-24T03:40:18.697Z,2.75
2023-09-24T03:41:51.851Z,2.83
2023-09-24T03:43:25.348Z,3.00
2023-09-24T03:46:30.963Z,2.83
2023-09-24T03:48:04.488Z,2.90
2023-09-24T03:49:36.583Z,2.83
2023-09-24T03:51:09.760Z,2.95
2023-09-24T03:52:41.752Z,3.08
2023-09-24T03:54:14.817Z,3.15
2023-09-24T03:55:46.854Z,3.22
2023-09-24T03:57:19.838Z,3.08
2023-09-24T03:58:54.140Z,2.75
2023-09-24T04:00:27.047Z,2.70
2023-09-24T04:02:00.272Z,2.90
2023-09-24T04:03:33.330Z,2.50
2023-09-24T04:05:08.176Z,2.80
2023-09-24T04:06:40.910Z,2.73
2023-09-24T04:08:14.594Z,3.00
2023-09-24T04:09:46.903Z,2.38
2023-09-24T04:11:19.918Z,2.40
2023-09-24T04:12:52.751Z,3.08
2023-09-24T04:14:27.611Z,3.20
2023-09-24T04:16:08.077Z,2.67
2023-09-24T04:17:40.840Z,2.77
2023-09-24T04:19:13.936Z,2.90
2023-09-24T04:20:45.975Z,2.72
2023-09-24T04:22:19.174Z,2.67
2023-09-24T04:23:51.336Z,2.80
2023-09-24T04:25:25.739Z,3.07
2023-09-24T04:26:58.007Z,2.50
2023-09-24T04:28:31.037Z,2.57
2023-09-24T04:30:09.002Z,2.70
2023-09-24T04:31:42.178Z,2.95
2023-09-24T04:33:14.333Z,2.97
2023-09-24T04:34:47.959Z,2.87
2023-09-24T04:36:19.995Z,2.63
2023-09-24T04:37:53.889Z,2.85
2023-09-24T04:39:25.965Z,2.80
2023-09-24T04:40:59.348Z,2.77
2023-09-24T04:42:31.338Z,2.60
2023-09-24T04:44:04.311Z,2.75
2023-09-24T04:45:37.949Z,2.80
2023-09-24T04:47:11.082Z,2.63
2023-09-24T04:48:43.255Z,2.78
2023-09-24T04:50:16.537Z,2.70
2023-09-24T04:51:48.622Z,3.40
2023-09-24T04:53:21.833Z,3.97
2023-09-24T04:54:54.249Z,3.17
2023-09-24T04:56:27.299Z,3.00
2023-09-24T04:57:59.328Z,3.60
2023-09-24T04:59:32.326Z,3.37
2023-09-24T05:01:06.669Z,3.30
2023-09-24T05:02:39.684Z,3.80
2023-09-24T05:04:11.935Z,3.75
2023-09-24T05:05:45.661Z,3.22
2023-09-24T05:07:18.223Z,3.50
2023-09-24T05:08:51.279Z,3.33
2023-09-24T05:10:23.350Z,3.35
2023-09-24T05:11:56.440Z,3.13
2023-09-24T05:15:01.564Z,3.08
2023-09-24T05:16:36.042Z,2.70
2023-09-24T05:18:08.244Z,2.90
2023-09-24T05:19:41.321Z,2.88
2023-09-24T05:21:18.483Z,3.08
2023-09-24T05:22:50.568Z,2.80
2023-09-24T05:24:23.490Z,2.90
2023-09-24T05:25:55.522Z,2.92
2023-09-24T05:27:31.613Z,2.80
2023-09-24T05:29:04.578Z,2.90
2023-09-24T05:30:36.691Z,2.78
2023-09-24T05:32:11.944Z,3.10
2023-09-24T05:33:45.898Z,2.80
2023-09-24T05:35:17.981Z,3.22
2023-09-24T05:36:52.557Z,4.80
2023-09-24T05:38:27.850Z,4.03
2023-09-24T05:40:00.905Z,3.25
2023-09-24T05:41:32.945Z,3.22
2023-09-24T05:43:06.193Z,3.38
2023-09-24T05:44:38.211Z,3.78
2023-09-24T05:46:13.051Z,3.47
2023-09-24T05:47:47.337Z,3.53
2023-09-24T05:49:20.372Z,3.33
2023-09-24T05:50:52.431Z,3.00
2023-09-24T05:52:25.505Z,3.83
2023-09-24T05:53:57.520Z,4.13
2023-09-24T05:55:30.542Z,3.70
2023-09-24T05:57:04.723Z,4.30
2023-09-24T05:58:37.833Z,3.50
2023-09-24T06:00:12.013Z,3.30
2023-09-24T06:01:44.198Z,2.90
2023-09-24T06:03:18.763Z,3.10
2023-09-24T06:04:51.978Z,3.47
2023-09-24T06:06:24.123Z,3.00
2023-09-24T06:07:57.630Z,3.05
2023-09-24T06:09:29.929Z,3.22
2023-09-24T06:11:03.337Z,3.10
2023-09-24T06:12:35.292Z,2.97
2023-09-24T06:14:09.828Z,3.30
2023-09-24T06:15:43.217Z,2.80
2023-09-24T06:18:49.508Z,3.13
2023-09-24T06:20:21.912Z,2.83
2023-09-24T06:21:54.933Z,3.10
2023-09-24T06:23:26.927Z,3.15
2023-09-24T06:25:00.147Z,2.88
2023-09-24T06:26:32.320Z,2.92
2023-09-24T06:28:10.280Z,3.28
2023-09-24T06:29:42.271Z,3.20
2023-09-24T06:31:15.325Z,3.40
2023-09-24T06:32:47.595Z,3.15
2023-09-24T06:34:21.956Z,3.67
2023-09-24T06:35:54.026Z,2.90
2023-09-24T06:37:27.130Z,3.60
2023-09-24T06:39:00.791Z,4.00
2023-09-24T06:40:34.569Z,3.10
2023-09-24T06:42:08.177Z,3.20
2023-09-24T06:43:40.289Z,3.90
2023-09-24T06:45:13.425Z,3.17
2023-09-24T06:46:45.528Z,3.60
2023-09-24T06:48:21.877Z,3.83
2023-09-24T06:49:56.744Z,3.17
2023-09-24T06:51:28.738Z,3.20
2023-09-24T06:53:01.685Z,3.20
2023-09-24T06:54:33.904Z,3.30
2023-09-24T06:56:07.951Z,3.17
2023-09-24T06:57:40.987Z,3.20
2023-09-24T06:59:12.964Z,3.60
2023-09-24T07:00:45.902Z,3.47
2023-09-24T07:02:17.944Z,3.35
2023-09-24T07:03:52.861Z,3.30
2023-09-24T07:05:28.336Z,2.90
2023-09-24T07:07:00.453Z,3.22
2023-09-24T07:08:34.710Z,2.85
2023-09-24T07:10:08.007Z,3.20
2023-09-24T07:13:14.419Z,2.80
2023-09-24T07:14:47.471Z,2.85
2023-09-24T07:16:23.252Z,2.78
2023-09-24T07:17:56.611Z,2.80
2023-09-24T07:19:28.693Z,2.72
2023-09-24T07:21:03.869Z,3.00
2023-09-24T07:22:37.115Z,3.00
2023-09-24T07:24:09.643Z,2.90
2023-09-24T07:25:42.622Z,3.13
2023-09-24T07:27:15.619Z,3.00
2023-09-24T07:28:47.730Z,3.10
2023-09-24T07:30:20.942Z,2.80
2023-09-24T07:31:53.073Z,2.97
2023-09-24T07:33:27.779Z,2.88
2023-09-24T07:35:00.818Z,3.33
2023-09-24T07:36:44.161Z,3.05
2023-09-24T07:38:19.420Z,3.40
2023-09-24T07:39:52.508Z,3.30
2023-09-24T07:41:24.506Z,3.30
2023-09-24T07:42:57.650Z,3.42
2023-09-24T07:44:29.807Z,3.33
2023-09-24T07:46:03.020Z,3.30
2023-09-24T07:49:08.389Z,3.50
2023-09-24T07:50:41.525Z,3.28
2023-09-24T07:52:15.487Z,3.60
2023-09-24T07:53:49.254Z,3.60
2023-09-24T07:55:21.529Z,3.65
2023-09-24T07:56:55.168Z,3.45
2023-09-24T07:58:27.278Z,3.88
2023-09-24T08:00:01.805Z,3.70
2023-09-24T08:01:34.110Z,3.70
2023-09-24T08:03:07.177Z,4.03
2023-09-24T08:04:40.554Z,3.30
2023-09-24T08:07:47.463Z,3.25
2023-09-24T08:09:26.854Z,3.90
2023-09-24T08:10:59.935Z,3.63
2023-09-24T08:12:33.001Z,3.72
2023-09-24T08:14:05.301Z,3.70
2023-09-24T08:15:38.395Z,3.88
2023-09-24T08:18:45.430Z,3.63
2023-09-24T08:20:17.612Z,3.65
2023-09-24T08:21:50.595Z,3.67
2023-09-24T08:23:25.124Z,3.90
2023-09-24T08:24:58.028Z,4.00
2023-09-24T08:26:30.110Z,4.57
2023-09-24T08:28:03.927Z,3.53
2023-09-24T08:29:36.064Z,3.70
2023-09-24T08:31:11.834Z,3.60
2023-09-24T08:32:44.091Z,3.40
2023-09-24T08:34:17.220Z,5.63
2023-09-24T08:35:49.217Z,3.80
2023-09-24T08:37:22.211Z,3.72
2023-09-24T08:38:56.648Z,4.00
2023-09-24T08:40:30.762Z,3.60
2023-09-24T08:42:04.751Z,3.53
2023-09-24T08:43:39.935Z,3.72
2023-09-24T08:45:15.886Z,3.60
2023-09-24T08:46:51.502Z,3.78
2023-09-24T08:48:24.553Z,3.50
2023-09-24T08:49:58.986Z,3.45
2023-09-24T08:51:33.820Z,3.45
2023-09-24T08:53:09.318Z,3.83
2023-09-24T08:54:43.778Z,3.55
2023-09-24T08:56:19.476Z,3.40
2023-09-24T08:57:52.814Z,3.75
2023-09-24T08:59:27.058Z,3.95
2023-09-24T09:01:00.336Z,3.80
2023-09-24T09:04:05.782Z,4.22
2023-09-24T09:05:40.211Z,3.47
2023-09-24T09:07:12.980Z,3.20
2023-09-24T09:08:53.516Z,3.00
2023-09-24T09:10:28.924Z,3.08
2023-09-24T09:12:01.951Z,3.00
2023-09-24T09:13:34.061Z,3.40
2023-09-24T09:15:18.567Z,3.40
2023-09-24T09:16:56.632Z,3.22
2023-09-24T09:18:30.638Z,3.25
2023-09-24T09:20:03.820Z,3.00
2023-09-24T09:21:36.873Z,3.00
2023-09-24T09:23:12.677Z,2.88
2023-09-24T09:24:45.794Z,3.58
2023-09-24T09:26:20.174Z,3.08
2023-09-24T09:27:52.254Z,3.38
2023-09-24T09:29:26.489Z,3.20
2023-09-24T09:31:00.507Z,3.00
2023-09-24T09:32:38.017Z,2.92
2023-09-24T09:34:10.152Z,3.40
2023-09-24T09:35:43.194Z,2.95
2023-09-24T09:37:18.563Z,2.95
2023-09-24T09:38:52.293Z,2.90
2023-09-24T09:40:25.373Z,3.40
2023-09-24T09:41:58.917Z,3.10
2023-09-24T09:43:32.966Z,3.17
2023-09-24T09:45:09.217Z,3.10
2023-09-24T09:46:46.808Z,3.13
2023-09-24T09:48:21.855Z,2.95
2023-09-24T09:49:59.584Z,3.20
2023-09-24T09:51:40.850Z,3.08
2023-09-24T09:53:18.200Z,2.83
2023-09-24T09:54:56.995Z,2.92
2023-09-24T09:56:29.426Z,2.60
2023-09-24T09:58:16.001Z,2.20
2023-09-24T09:59:56.615Z,1.88
2023-09-24T10:01:29.639Z,2.00
2023-09-24T10:03:02.651Z,2.13
2023-09-24T10:04:38.048Z,2.30
2023-09-24T10:06:12.738Z,2.28
2023-09-24T10:07:44.864Z,2.72
2023-09-24T10:09:36.842Z,2.50
2023-09-24T10:11:09.867Z,2.03
2023-09-24T10:12:42.981Z,1.60
2023-09-24T10:14:32.839Z,2.55
2023-09-24T10:16:43.047Z,1.90
2023-09-24T10:18:24.934Z,2.00
2023-09-24T10:20:00.310Z,2.00
2023-09-24T10:21:33.503Z,2.08
2023-09-24T10:23:39.249Z,1.95
2023-09-24T10:25:34.189Z,1.90
2023-09-24T10:27:06.432Z,1.85
2023-09-24T10:28:52.766Z,1.88
2023-09-24T10:30:26.299Z,1.80
2023-09-24T10:32:24.019Z,2.30
2023-09-24T10:33:59.159Z,1.92
2023-09-24T10:35:32.370Z,1.77
2023-09-24T10:37:10.836Z,1.40
2023-09-24T10:39:05.601Z,1.98
2023-09-24T10:41:05.244Z,1.77
2023-09-24T10:42:38.985Z,1.70
2023-09-24T10:44:26.180Z,1.70
2023-09-24T10:46:27.378Z,2.00
2023-09-24T10:48:04.105Z,1.60
2023-09-24T10:49:37.070Z,2.00
2023-09-24T10:51:09.214Z,1.67
2023-09-24T10:52:49.328Z,1.52
2023-09-24T10:54:22.451Z,1.38
2023-09-24T10:57:47.568Z,1.30
2023-09-24T10:59:33.488Z,1.60
2023-09-24T11:01:07.904Z,1.45
2023-09-24T11:02:40.148Z,1.50
2023-09-24T11:04:26.018Z,1.42
2023-09-24T11:05:58.268Z,1.50
2023-09-24T11:07:33.099Z,1.40
2023-09-24T11:09:18.941Z,1.60
2023-09-24T11:10:52.515Z,1.27
2023-09-24T11:12:25.321Z,1.30
2023-09-24T11:13:58.496Z,1.50
2023-09-24T11:17:06.987Z,1.35
2023-09-24T11:18:48.543Z,1.40
2023-09-24T11:20:23.741Z,1.33
2023-09-24T11:21:56.756Z,1.30
2023-09-24T11:23:36.745Z,1.60
2023-09-24T11:25:11.832Z,1.80
2023-09-24T11:26:45.252Z,1.70
2023-09-24T11:28:20.311Z,1.80
2023-09-24T11:29:58.966Z,1.85
2023-09-24T11:31:32.062Z,1.70
2023-09-24T11:33:13.146Z,1.60
2023-09-24T11:34:46.263Z,1.60
2023-09-24T11:36:18.537Z,1.75
2023-09-24T11:37:57.974Z,1.40
2023-09-24T11:39:32.119Z,1.90
2023-09-24T11:41:09.066Z,1.80
2023-09-24T11:42:51.091Z,1.50
2023-09-24T11:44:24.116Z,1.50
2023-09-24T11:45:57.041Z,1.83
2023-09-24T11:47:30.080Z,1.73
2023-09-24T11:50:37.765Z,1.50
2023-09-24T11:52:10.612Z,1.60
2023-09-24T11:53:43.688Z,1.48
2023-09-24T11:55:15.922Z,1.15
2023-09-24T11:56:48.991Z,1.45
2023-09-24T11:58:23.301Z,1.52
2023-09-24T11:59:56.329Z,1.40
2023-09-24T12:01:28.869Z,1.15
2023-09-24T12:03:03.076Z,1.52
2023-09-24T12:04:37.510Z,1.40
2023-09-24T12:06:09.956Z,1.30
2023-09-24T12:07:42.929Z,1.60
2023-09-24T12:09:16.004Z,1.60
2023-09-24T12:10:51.550Z,1.60
2023-09-24T12:12:25.513Z,1.52
2023-09-24T12:13:58.471Z,1.40
2023-09-24T12:15:30.815Z,1.55
2023-09-24T12:17:03.887Z,1.40
2023-09-24T12:18:37.083Z,1.50
2023-09-24T12:21:45.816Z,1.27
2023-09-24T12:24:50.833Z,1.55
2023-09-24T12:27:56.062Z,1.60
2023-09-24T12:29:31.592Z,1.40
2023-09-24T12:31:05.580Z,1.50
2023-09-24T12:32:38.052Z,1.50
2023-09-24T12:34:11.038Z,1.40
2023-09-24T12:35:45.512Z,1.40
2023-09-24T12:37:17.731Z,1.20
2023-09-24T12:38:50.861Z,1.23
2023-09-24T12:40:23.957Z,1.23
2023-09-24T12:41:56.962Z,1.30
2023-09-24T12:43:28.984Z,1.45
2023-09-24T12:45:02.113Z,1.30
2023-09-24T12:48:08.034Z,1.70
2023-09-24T12:49:40.041Z,4.40
2023-09-24T12:51:14.409Z,1.40
2023-09-24T12:52:46.872Z,1.50
2023-09-24T12:54:20.104Z,1.77
2023-09-24T12:55:52.203Z,1.50
2023-09-24T12:57:25.210Z,1.35
2023-09-24T12:59:01.039Z,1.80
2023-09-24T13:00:33.963Z,3.67
2023-09-24T13:02:06.993Z,2.03
2023-09-24T13:05:13.731Z,1.20
2023-09-24T13:06:48.103Z,1.73
2023-09-24T13:08:20.063Z,1.42
2023-09-24T13:09:53.121Z,1.48
2023-09-24T13:12:59.907Z,1.15
2023-09-24T13:14:32.063Z,1.20
2023-09-24T13:16:05.503Z,1.40
2023-09-24T13:17:37.702Z,1.38
2023-09-24T13:19:12.793Z,1.40
2023-09-24T13:20:45.809Z,1.40
2023-09-24T13:22:19.249Z,1.40
2023-09-24T13:23:52.762Z,1.40
2023-09-24T13:25:25.825Z,1.38
2023-09-24T13:26:57.905Z,1.35
2023-09-24T13:28:33.720Z,1.38
2023-09-24T13:30:08.547Z,1.40
2023-09-24T13:31:40.754Z,1.30
2023-09-24T13:33:13.838Z,1.30
2023-09-24T13:36:18.841Z,1.45
2023-09-24T13:37:53.461Z,3.95
2023-09-24T13:39:25.565Z,1.70
2023-09-24T13:40:58.705Z,1.30
2023-09-24T13:42:30.630Z,1.60
2023-09-24T13:44:04.289Z,1.80
2023-09-24T13:45:47.958Z,1.58
2023-09-24T13:47:20.026Z,1.50
2023-09-24T13:48:54.736Z,2.00
2023-09-24T13:50:26.948Z,1.60
2023-09-24T13:52:00.151Z,1.30
2023-09-24T13:55:06.997Z,1.48
2023-09-24T13:56:40.083Z,1.42
2023-09-24T13:58:13.825Z,1.20
2023-09-24T13:59:52.625Z,1.17
2023-09-24T14:01:25.933Z,1.38
2023-09-24T14:02:59.093Z,1.30
2023-09-24T14:04:31.697Z,1.25
2023-09-24T14:06:05.185Z,1.50
2023-09-24T14:07:37.374Z,1.50
2023-09-24T14:09:29.168Z,1.10
2023-09-24T14:11:19.771Z,1.20
2023-09-24T14:12:52.787Z,1.35
2023-09-24T14:14:24.778Z,1.38
2023-09-24T14:15:57.823Z,1.27
2023-09-24T14:19:03.828Z,1.30
2023-09-24T14:22:09.745Z,1.30
2023-09-24T14:23:41.720Z,1.50
2023-09-24T14:25:16.361Z,1.20
2023-09-24T14:26:49.402Z,1.48
2023-09-24T14:28:21.853Z,1.25
2023-09-24T14:29:54.912Z,1.38
2023-09-24T14:31:27.603Z,5.22
2023-09-24T14:33:00.836Z,1.40
2023-09-24T14:36:06.297Z,1.40
2023-09-24T14:37:39.362Z,1.15
2023-09-24T14:39:12.874Z,1.30
2023-09-24T14:40:46.296Z,1.35
2023-09-24T14:42:19.317Z,1.40
2023-09-24T14:43:51.377Z,1.30
2023-09-24T14:45:24.430Z,1.45
2023-09-24T14:46:56.744Z,1.20
2023-09-24T14:48:30.884Z,1.70
2023-09-24T14:50:04.137Z,1.30
2023-09-24T14:51:37.610Z,1.50
2023-09-24T14:53:09.816Z,1.25
2023-09-24T14:54:43.111Z,1.38
2023-09-24T14:56:21.760Z,1.30
2023-09-24T14:57:57.960Z,1.20
2023-09-24T14:59:30.623Z,1.20
2023-09-24T15:01:05.514Z,1.00
2023-09-24T15:02:37.620Z,1.60
2023-09-24T15:04:11.050Z,1.38
2023-09-24T15:05:44.937Z,1.30
2023-09-24T15:07:17.902Z,1.30
2023-09-24T15:08:50.072Z,1.30
2023-09-24T15:10:23.852Z,1.27
2023-09-24T15:11:57.932Z,1.67
2023-09-24T15:13:34.070Z,1.40
2023-09-24T15:15:07.331Z,1.20
2023-09-24T15:16:41.087Z,1.20
2023-09-24T15:18:13.233Z,1.48
2023-09-24T15:19:46.321Z,1.40
2023-09-24T15:21:19.524Z,1.10
2023-09-24T15:22:51.674Z,1.48
2023-09-24T15:24:25.267Z,1.20
2023-09-24T15:25:58.050Z,1.20
2023-09-24T15:27:32.760Z,1.05
2023-09-24T15:29:06.660Z,1.02
2023-09-24T15:30:41.189Z,1.42
2023-09-24T15:32:16.692Z,1.00
2023-09-24T15:33:50.465Z,1.10
2023-09-24T15:35:25.784Z,1.10
2023-09-24T15:36:58.764Z,1.42
2023-09-24T15:38:32.941Z,1.40
2023-09-24T15:40:06.218Z,1.35
2023-09-24T15:41:39.490Z,1.40
2023-09-24T15:43:12.867Z,1.10
2023-09-24T15:44:46.049Z,1.30
2023-09-24T15:47:51.758Z,1.20
2023-09-24T15:49:24.910Z,1.33
2023-09-24T15:50:56.983Z,1.95
2023-09-24T15:52:30.147Z,1.67
2023-09-24T15:55:35.211Z,1.42
2023-09-24T15:57:08.224Z,1.50
2023-09-24T15:58:41.862Z,1.33
2023-09-24T16:00:17.859Z,1.30
2023-09-24T16:01:50.049Z,1.10
2023-09-24T16:03:23.139Z,1.20
2023-09-24T16:04:57.626Z,1.20
2023-09-24T16:06:30.719Z,1.30
2023-09-24T16:08:03.058Z,1.20
2023-09-24T16:09:36.578Z,1.20
2023-09-24T16:11:09.584Z,1.30
2023-09-24T16:12:41.809Z,1.30
2023-09-24T16:14:16.797Z,1.58
2023-09-24T16:15:51.168Z,1.30
2023-09-24T16:17:23.405Z,1.35
2023-09-24T16:18:57.064Z,1.50
2023-09-24T16:20:31.528Z,1.40
2023-09-24T16:22:03.605Z,1.65
2023-09-24T16:23:37.296Z,1.50
2023-09-24T16:25:10.068Z,1.60
2023-09-24T16:26:43.291Z,1.88
2023-09-24T16:28:15.302Z,2.00
2023-09-24T16:29:51.893Z,1.88
2023-09-24T16:31:25.347Z,1.70
2023-09-24T16:32:58.487Z,1.55
2023-09-24T16:36:03.752Z,1.80
2023-09-24T16:37:36.571Z,1.40
2023-09-24T16:39:11.048Z,1.40
2023-09-24T16:40:44.082Z,1.70
2023-09-24T16:42:16.253Z,1.50
2023-09-24T16:43:49.502Z,1.50
2023-09-24T16:45:24.065Z,1.45
2023-09-24T16:46:56.154Z,1.50
2023-09-24T16:48:29.273Z,1.90
2023-09-24T16:51:34.335Z,1.80
2023-09-24T16:53:06.958Z,1.73
2023-09-24T16:54:39.970Z,2.00
2023-09-24T16:56:11.943Z,2.05
2023-09-24T16:57:47.783Z,1.80
2023-09-24T16:59:20.004Z,2.13
2023-09-24T17:00:54.438Z,2.80
2023-09-24T17:02:26.596Z,2.47
2023-09-24T17:03:59.730Z,2.00
2023-09-24T17:07:07.412Z,1.92
2023-09-24T17:08:39.491Z,2.13
2023-09-24T17:10:12.760Z,2.00
2023-09-24T17:13:17.621Z,1.88
2023-09-24T17:14:50.418Z,2.00
2023-09-24T17:16:25.086Z,7.47
2023-09-24T17:17:58.426Z,2.50
2023-09-24T17:19:31.478Z,2.60
2023-09-24T17:21:03.545Z,2.00
2023-09-24T17:22:36.571Z,2.13
2023-09-24T17:24:10.000Z,2.08
2023-09-24T17:25:43.097Z,2.10
2023-09-24T17:27:15.117Z,2.38
2023-09-24T17:28:48.591Z,2.50
2023-09-24T17:30:20.733Z,2.30
2023-09-24T17:31:55.168Z,2.17
2023-09-24T17:33:27.885Z,2.30
2023-09-24T17:35:01.050Z,2.50
2023-09-24T17:36:32.986Z,2.53
2023-09-24T17:38:06.040Z,2.50
2023-09-24T17:39:38.018Z,2.50
2023-09-24T17:41:10.989Z,2.70
2023-09-24T17:42:44.969Z,2.55
2023-09-24T17:44:17.962Z,2.80
2023-09-24T17:46:00.139Z,3.88
2023-09-24T17:47:34.618Z,3.17
2023-09-24T17:49:06.643Z,3.10
2023-09-24T17:50:39.626Z,2.80
2023-09-24T17:52:12.748Z,3.10
2023-09-24T17:53:45.980Z,3.10
2023-09-24T17:56:50.790Z,6.20
2023-09-24T17:58:23.503Z,6.68
2023-09-24T17:59:56.463Z,4.70
2023-09-24T18:01:29.460Z,4.45
2023-09-24T18:03:03.034Z,3.83
2023-09-24T18:04:36.340Z,3.60
2023-09-24T18:07:41.463Z,3.65
2023-09-24T18:09:13.699Z,4.00
2023-09-24T18:10:46.796Z,3.08
2023-09-24T18:12:18.761Z,3.00
2023-09-24T18:13:53.538Z,2.67
2023-09-24T18:15:29.134Z,4.40
2023-09-24T18:17:06.794Z,2.50
2023-09-24T18:18:41.303Z,2.40
2023-09-24T18:20:13.344Z,2.70
2023-09-24T18:21:46.356Z,2.90
2023-09-24T18:23:19.077Z,2.97
2023-09-24T18:24:53.114Z,3.00
2023-09-24T18:26:26.082Z,3.20
2023-09-24T18:27:58.051Z,3.40
2023-09-24T18:29:30.957Z,3.50
2023-09-24T18:31:03.930Z,3.53
2023-09-24T18:32:35.921Z,3.63
2023-09-24T18:34:10.280Z,3.10
2023-09-24T18:35:43.457Z,3.25
2023-09-24T18:37:16.378Z,3.47
2023-09-24T18:38:48.346Z,2.92
2023-09-24T18:40:21.350Z,3.25
2023-09-24T18:41:54.551Z,2.95
2023-09-24T18:45:00.167Z,3.00
2023-09-24T18:46:33.192Z,3.38
2023-09-24T18:48:06.840Z,2.58
2023-09-24T18:49:41.221Z,2.38
2023-09-24T18:51:14.767Z,3.03
2023-09-24T18:52:46.763Z,2.40
2023-09-24T18:54:20.738Z,2.30
2023-09-24T18:56:00.421Z,2.30
2023-09-24T18:57:33.423Z,2.25
2023-09-24T18:59:07.475Z,2.42
2023-09-24T19:00:39.451Z,2.42
2023-09-24T19:02:12.609Z,2.45
2023-09-24T19:03:45.808Z,2.40
2023-09-24T19:06:52.121Z,2.17
2023-09-24T19:08:25.920Z,2.30
2023-09-24T19:10:01.996Z,2.50
2023-09-24T19:11:34.013Z,2.50
2023-09-24T19:13:07.148Z,2.33
2023-09-24T19:14:39.608Z,2.70
2023-09-24T19:16:12.735Z,2.53
2023-09-24T19:17:47.057Z,3.08
2023-09-24T19:19:19.187Z,2.50
2023-09-24T19:20:53.618Z,2.63
2023-09-24T19:22:26.012Z,2.65
2023-09-24T19:23:59.226Z,2.50
2023-09-24T19:27:04.421Z,2.70
2023-09-24T19:30:12.478Z,2.08
2023-09-24T19:31:44.582Z,2.35
2023-09-24T19:33:17.667Z,2.40
2023-09-24T19:34:50.265Z,2.30
2023-09-24T19:36:24.685Z,2.53
2023-09-24T19:37:56.703Z,2.30
2023-09-24T19:39:29.806Z,2.30
2023-09-24T19:42:36.327Z,2.60
2023-09-24T19:44:10.803Z,2.47
2023-09-24T19:45:50.365Z,2.33
2023-09-24T19:47:22.508Z,2.50
2023-09-24T19:48:55.716Z,2.13
2023-09-24T19:50:28.403Z,2.60
2023-09-24T19:52:02.692Z,2.40
2023-09-24T19:53:36.243Z,2.58
2023-09-24T19:55:10.247Z,2.50
2023-09-24T19:56:42.824Z,2.40
2023-09-24T19:58:15.886Z,2.70
2023-09-24T19:59:49.119Z,2.60
2023-09-24T20:01:21.376Z,2.55
2023-09-24T20:02:54.513Z,2.20
2023-09-24T20:05:59.655Z,2.90
2023-09-24T20:07:34.367Z,2.70
2023-09-24T20:09:08.404Z,2.58
2023-09-24T20:10:40.552Z,2.70
2023-09-24T20:12:13.694Z,2.60
2023-09-24T20:13:47.189Z,2.38
2023-09-24T20:15:20.248Z,2.58
2023-09-24T20:16:52.319Z,2.50
2023-09-24T20:18:25.283Z,2.38
2023-09-24T20:19:57.530Z,2.38
2023-09-24T20:21:30.503Z,2.33
2023-09-24T20:23:04.427Z,2.60
2023-09-24T20:24:40.272Z,2.40
2023-09-24T20:26:14.011Z,2.40
2023-09-24T20:27:48.695Z,2.50
2023-09-24T20:29:20.769Z,2.70
2023-09-24T20:30:54.049Z,2.30
2023-09-24T20:34:02.091Z,2.53
2023-09-24T20:35:34.683Z,2.92
2023-09-24T20:37:07.628Z,2.40
2023-09-24T20:38:40.987Z,2.58
2023-09-24T20:40:16.818Z,2.78
2023-09-24T20:41:54.780Z,2.63
2023-09-24T20:43:26.934Z,2.70
2023-09-24T20:45:00.011Z,2.80
2023-09-24T20:46:34.809Z,2.72
2023-09-24T20:48:08.788Z,2.63
2023-09-24T20:49:40.792Z,3.20
2023-09-24T20:51:13.876Z,2.83
2023-09-24T20:52:46.468Z,2.97
2023-09-24T20:54:20.871Z,2.90
2023-09-24T20:55:52.934Z,2.95
2023-09-24T20:57:26.140Z,3.10
2023-09-24T21:00:37.628Z,3.47
2023-09-24T21:02:10.919Z,3.38
2023-09-24T21:03:44.559Z,4.13
2023-09-24T21:05:17.686Z,3.80
2023-09-24T21:06:49.644Z,3.70
2023-09-24T21:08:22.640Z,3.60
2023-09-24T21:09:56.042Z,4.00
2023-09-24T21:11:29.098Z,4.10
2023-09-24T21:13:01.152Z,3.85
2023-09-24T21:14:34.092Z,4.03
2023-09-24T21:16:08.364Z,3.25
2023-09-24T21:17:41.835Z,3.17
2023-09-24T21:19:14.831Z,3.60
2023-09-24T21:20:46.828Z,3.20
2023-09-24T21:22:20.047Z,3.70
2023-09-24T21:23:52.130Z,3.40
2023-09-24T21:25:26.418Z,4.40
2023-09-24T21:26:58.443Z,3.08
2023-09-24T21:28:31.418Z,3.50
2023-09-24T21:30:03.608Z,3.40
2023-09-24T21:31:36.562Z,3.80
2023-09-24T21:33:08.690Z,3.38
2023-09-24T21:34:41.823Z,3.40
2023-09-24T21:36:15.588Z,3.42
2023-09-24T21:37:47.614Z,3.30
2023-09-24T21:39:20.603Z,3.40
2023-09-24T21:40:54.094Z,3.17
2023-09-24T21:42:27.096Z,3.00
2023-09-24T21:43:59.103Z,3.40
2023-09-24T21:45:32.154Z,3.25
2023-09-24T21:47:04.493Z,4.05
2023-09-24T21:48:37.526Z,3.37
2023-09-24T21:50:10.113Z,3.15
2023-09-24T21:51:43.268Z,3.47
2023-09-24T21:53:15.395Z,3.47
2023-09-24T21:54:48.392Z,3.00
2023-09-24T21:56:23.668Z,3.40
2023-09-24T21:57:56.664Z,3.40
2023-09-24T21:59:28.764Z,3.65
2023-09-24T22:01:01.827Z,3.50
2023-09-24T22:02:34.079Z,3.25
2023-09-24T22:04:07.737Z,3.60